createdAt,value
2018-06-15T00:00:32.699Z,16.45
2018-06-15T00:01:32.676Z,16.53
2018-06-15T00:02:32.684Z,16.49
2018-06-15T00:03:32.649Z,16.48
2018-06-15T00:04:32.636Z,16.49
2018-06-15T00:05:32.628Z,16.43
2018-06-15T00:06:32.608Z,16.45
2018-06-15T00:07:32.602Z,16.34
2018-06-15T00:08:32.606Z,16.41
2018-06-15T00:09:32.573Z,16.43
2018-06-15T00:10:32.555Z,16.27
2018-06-15T00:11:32.556Z,16.41
2018-06-15T00:12:32.529Z,16.38
2018-06-15T00:13:32.530Z,16.31
2018-06-15T00:14:32.503Z,16.38
2018-06-15T00:15:32.514Z,16.23
2018-06-15T00:16:32.483Z,16.27
2018-06-15T00:17:32.460Z,16.28
2018-06-15T00:18:32.464Z,16.15
2018-06-15T00:19:32.434Z,16.17
2018-06-15T00:20:32.415Z,16.15
2018-06-15T00:21:32.406Z,16.05
2018-06-15T00:22:32.395Z,16.08
2018-06-15T00:23:32.375Z,16.01
2018-06-15T00:24:32.380Z,16.04
2018-06-15T00:25:32.380Z,15.93
2018-06-15T00:26:32.346Z,15.93
2018-06-15T00:27:32.328Z,15.90
2018-06-15T00:28:32.309Z,15.92
2018-06-15T00:29:32.310Z,15.92
2018-06-15T00:30:32.281Z,15.89
2018-06-15T00:31:32.276Z,15.80
2018-06-15T00:32:32.271Z,15.92
2018-06-15T00:33:32.243Z,15.83
2018-06-15T00:34:32.256Z,15.82
2018-06-15T00:35:32.228Z,15.80
2018-06-15T00:36:32.212Z,15.80
2018-06-15T00:37:32.194Z,15.84
2018-06-15T00:38:32.173Z,15.80
2018-06-15T00:39:32.165Z,15.83
2018-06-15T00:40:32.145Z,15.69
2018-06-15T00:41:32.151Z,15.78
2018-06-15T00:42:32.132Z,15.71
2018-06-15T00:43:32.119Z,15.78
2018-06-15T00:44:32.090Z,15.80
2018-06-15T00:45:32.073Z,15.75
2018-06-15T00:46:32.062Z,15.84
2018-06-15T00:47:32.051Z,15.74
2018-06-15T00:48:32.050Z,15.78
2018-06-15T00:49:32.025Z,15.80
2018-06-15T00:50:32.009Z,15.86
2018-06-15T00:51:32.010Z,15.82
2018-06-15T00:52:31.996Z,15.84
2018-06-15T00:53:31.967Z,15.84
2018-06-15T00:54:31.951Z,15.87
2018-06-15T00:55:31.957Z,15.93
2018-06-15T00:56:31.937Z,15.94
2018-06-15T00:57:31.913Z,15.94
2018-06-15T00:58:31.902Z,16.01
2018-06-15T00:59:31.888Z,16.02
2018-06-15T01:00:31.874Z,16.02
2018-06-15T01:01:31.878Z,15.96
2018-06-15T01:02:31.847Z,16.01
2018-06-15T01:03:31.829Z,16.01
2018-06-15T01:04:31.829Z,16.00
2018-06-15T01:05:31.807Z,16.08
2018-06-15T01:06:31.799Z,16.09
2018-06-15T01:07:31.801Z,16.07
2018-06-15T01:08:31.759Z,16.07
2018-06-15T01:09:31.753Z,16.14
2018-06-15T01:10:31.730Z,16.12
2018-06-15T01:11:31.726Z,16.12
2018-06-15T01:12:31.710Z,16.07
2018-06-15T01:13:31.722Z,16.14
2018-06-15T01:14:31.679Z,16.04
2018-06-15T01:15:31.664Z,16.09
2018-06-15T01:16:31.652Z,16.04
2018-06-15T01:17:31.637Z,16.14
2018-06-15T01:18:31.641Z,16.14
2018-06-15T01:19:31.606Z,16.17
2018-06-15T01:20:31.591Z,16.09
2018-06-15T01:21:31.580Z,16.12
2018-06-15T01:22:31.570Z,16.08
2018-06-15T01:23:31.555Z,16.08
2018-06-15T01:24:31.555Z,16.09
2018-06-15T01:25:31.523Z,16.05
2018-06-15T01:26:31.521Z,16.01
2018-06-15T01:27:31.507Z,15.94
2018-06-15T01:28:31.483Z,16.00
2018-06-15T01:29:31.487Z,15.90
2018-06-15T01:30:31.477Z,15.93
2018-06-15T01:31:31.441Z,15.90
2018-06-15T01:32:31.426Z,15.96
2018-06-15T01:33:31.409Z,15.90
2018-06-15T01:34:38.951Z,15.83
2018-06-15T01:35:39.694Z,15.83
2018-06-15T01:36:39.725Z,15.83
2018-06-15T01:37:31.356Z,15.86
2018-06-15T01:38:31.344Z,15.87
2018-06-15T01:39:38.870Z,15.86
2018-06-15T01:40:39.799Z,15.84
2018-06-15T01:41:31.303Z,15.76
2018-06-15T01:42:31.286Z,15.84
2018-06-15T01:43:31.274Z,15.87
2018-06-15T01:44:31.254Z,15.84
2018-06-15T01:45:31.256Z,15.93
2018-06-15T01:46:31.229Z,15.93
2018-06-15T01:47:31.218Z,15.90
2018-06-15T01:48:31.199Z,15.76
2018-06-15T01:49:31.180Z,15.82
2018-06-15T01:50:31.186Z,15.82
2018-06-15T01:51:31.163Z,15.87
2018-06-15T01:52:31.146Z,15.90
2018-06-15T01:53:31.135Z,15.89
2018-06-15T01:54:31.142Z,15.96
2018-06-15T01:55:31.116Z,15.90
2018-06-15T01:56:31.089Z,15.89
2018-06-15T01:57:31.073Z,15.93
2018-06-15T01:58:31.058Z,15.92
2018-06-15T01:59:31.060Z,15.96
2018-06-15T02:00:31.031Z,15.89
2018-06-15T02:01:31.017Z,15.86
2018-06-15T02:02:31.006Z,15.78
2018-06-15T02:03:30.991Z,15.83
2018-06-15T02:04:30.976Z,15.72
2018-06-15T02:05:30.980Z,15.75
2018-06-15T02:06:30.945Z,15.74
2018-06-15T02:07:30.934Z,15.67
2018-06-15T02:08:30.919Z,15.72
2018-06-15T02:09:30.904Z,15.57
2018-06-15T02:10:30.891Z,15.54
2018-06-15T02:11:30.911Z,15.57
2018-06-15T02:12:30.865Z,15.57
2018-06-15T02:13:30.915Z,15.47
2018-06-15T02:14:30.830Z,15.54
2018-06-15T02:15:30.836Z,15.62
2018-06-15T02:16:30.826Z,15.64
2018-06-15T02:17:30.807Z,15.62
2018-06-15T02:18:30.779Z,15.68
2018-06-15T02:19:30.767Z,15.68
2018-06-15T02:20:30.755Z,15.72
2018-06-15T02:21:30.747Z,15.83
2018-06-15T02:22:30.741Z,15.76
2018-06-15T02:23:30.710Z,15.76
2018-06-15T02:24:30.711Z,15.75
2018-06-15T02:25:30.682Z,15.80
2018-06-15T02:26:30.669Z,15.78
2018-06-15T02:27:30.672Z,15.78
2018-06-15T02:28:30.655Z,15.84
2018-06-15T02:29:30.637Z,15.80
2018-06-15T02:30:30.629Z,15.87
2018-06-15T02:31:30.597Z,15.92
2018-06-15T02:32:30.600Z,15.90
2018-06-15T02:33:30.592Z,16.00
2018-06-15T02:34:30.568Z,15.94
2018-06-15T02:35:30.539Z,16.00
2018-06-15T02:36:30.531Z,16.01
2018-06-15T02:37:30.520Z,16.08
2018-06-15T02:38:30.502Z,16.01
2018-06-15T02:39:30.506Z,16.00
2018-06-15T02:40:30.472Z,16.04
2018-06-15T02:41:30.461Z,16.02
2018-06-15T02:42:30.445Z,16.05
2018-06-15T02:43:30.429Z,16.07
2018-06-15T02:44:30.435Z,16.02
2018-06-15T02:45:30.450Z,16.12
2018-06-15T02:46:30.393Z,16.01
2018-06-15T02:47:30.376Z,16.08
2018-06-15T02:48:30.364Z,16.15
2018-06-15T02:49:30.367Z,16.14
2018-06-15T02:50:30.336Z,16.11
2018-06-15T02:51:30.324Z,16.12
2018-06-15T02:52:30.307Z,16.11
2018-06-15T02:53:30.293Z,16.12
2018-06-15T02:54:30.279Z,16.11
2018-06-15T02:55:30.289Z,16.11
2018-06-15T02:56:30.246Z,16.14
2018-06-15T02:57:30.236Z,16.05
2018-06-15T02:58:30.224Z,16.17
2018-06-15T02:59:30.204Z,16.14
2018-06-15T03:00:30.214Z,16.08
2018-06-15T03:01:30.192Z,16.09
2018-06-15T03:02:30.163Z,16.17
2018-06-15T03:03:30.151Z,16.15
2018-06-15T03:04:30.139Z,16.15
2018-06-15T03:05:30.155Z,16.17
2018-06-15T03:06:30.126Z,16.15
2018-06-15T03:07:30.096Z,16.14
2018-06-15T03:08:30.087Z,16.23
2018-06-15T03:09:30.079Z,16.25
2018-06-15T03:10:30.057Z,16.28
2018-06-15T03:11:30.054Z,16.23
2018-06-15T03:12:30.025Z,16.30
2018-06-15T03:13:30.015Z,16.31
2018-06-15T03:14:29.997Z,16.33
2018-06-15T03:15:29.979Z,16.34
2018-06-15T03:16:29.995Z,16.34
2018-06-15T03:17:29.959Z,16.33
2018-06-15T03:18:29.958Z,16.34
2018-06-15T03:19:29.928Z,16.27
2018-06-15T03:20:29.930Z,16.25
2018-06-15T03:21:29.915Z,16.30
2018-06-15T03:22:29.901Z,16.23
2018-06-15T03:23:29.877Z,16.28
2018-06-15T03:24:29.874Z,16.30
2018-06-15T03:25:29.847Z,16.25
2018-06-15T03:26:29.845Z,16.42
2018-06-15T03:27:29.820Z,16.38
2018-06-15T03:28:29.804Z,16.35
2018-06-15T03:29:29.792Z,16.42
2018-06-15T03:30:29.804Z,16.38
2018-06-15T03:31:29.832Z,16.42
2018-06-15T03:32:43.863Z,16.34
2018-06-15T03:33:37.267Z,16.46
2018-06-15T03:34:37.930Z,16.45
2018-06-15T03:35:37.965Z,16.45
2018-06-15T03:36:29.688Z,16.35
2018-06-15T03:37:29.692Z,16.34
2018-06-15T03:38:38.017Z,16.34
2018-06-15T03:39:29.668Z,16.34
2018-06-15T03:40:29.633Z,16.34
2018-06-15T03:41:29.622Z,16.34
2018-06-15T03:42:29.654Z,16.39
2018-06-15T03:43:29.637Z,16.34
2018-06-15T03:44:29.593Z,16.46
2018-06-15T03:45:29.586Z,16.35
2018-06-15T03:46:29.568Z,16.34
2018-06-15T03:47:29.542Z,16.34
2018-06-15T03:48:29.523Z,16.30
2018-06-15T03:49:29.506Z,16.28
2018-06-15T03:50:29.511Z,16.31
2018-06-15T03:51:29.487Z,16.28
2018-06-15T03:52:29.485Z,16.33
2018-06-15T03:53:29.458Z,16.39
2018-06-15T03:54:29.459Z,16.35
2018-06-15T03:55:29.458Z,16.38
2018-06-15T03:56:29.427Z,16.31
2018-06-15T03:57:29.397Z,16.30
2018-06-15T03:58:29.387Z,16.33
2018-06-15T03:59:29.381Z,16.30
2018-06-15T04:00:29.361Z,16.35
2018-06-15T04:01:50.354Z,16.39
2018-06-15T04:02:29.349Z,16.30
2018-06-15T04:03:29.320Z,16.35
2018-06-15T04:04:29.307Z,16.34
2018-06-15T04:05:29.295Z,16.41
2018-06-15T04:06:29.302Z,16.34
2018-06-15T04:07:29.283Z,16.41
2018-06-15T04:08:29.252Z,16.34
2018-06-15T04:09:29.240Z,16.31
2018-06-15T04:10:29.226Z,16.39
2018-06-15T04:11:29.212Z,16.39
2018-06-15T04:12:29.216Z,16.38
2018-06-15T04:13:29.184Z,16.45
2018-06-15T04:14:29.171Z,16.42
2018-06-15T04:15:29.179Z,16.53
2018-06-15T04:16:29.162Z,16.48
2018-06-15T04:17:29.140Z,16.48
2018-06-15T04:18:29.133Z,16.49
2018-06-15T04:19:29.102Z,16.49
2018-06-15T04:20:29.092Z,16.42
2018-06-15T04:21:29.079Z,16.41
2018-06-15T04:22:29.084Z,16.39
2018-06-15T04:23:29.051Z,16.45
2018-06-15T04:24:29.033Z,16.39
2018-06-15T04:25:29.018Z,16.42
2018-06-15T04:26:29.006Z,16.41
2018-06-15T04:27:29.011Z,16.45
2018-06-15T04:28:28.999Z,16.57
2018-06-15T04:29:28.966Z,16.49
2018-06-15T04:30:28.955Z,16.45
2018-06-15T04:31:28.940Z,16.45
2018-06-15T04:32:28.929Z,16.46
2018-06-15T04:33:28.932Z,16.57
2018-06-15T04:34:28.917Z,16.58
2018-06-15T04:35:28.885Z,16.58
2018-06-15T04:36:28.879Z,16.61
2018-06-15T04:37:28.865Z,16.56
2018-06-15T04:38:28.865Z,16.58
2018-06-15T04:39:28.829Z,16.60
2018-06-15T04:40:28.818Z,16.67
2018-06-15T04:41:28.811Z,16.70
2018-06-15T04:42:28.795Z,16.60
2018-06-15T04:43:28.780Z,16.56
2018-06-15T04:44:28.784Z,16.57
2018-06-15T04:45:28.771Z,16.64
2018-06-15T04:46:28.735Z,16.75
2018-06-15T04:47:28.730Z,16.71
2018-06-15T04:48:28.715Z,16.66
2018-06-15T04:49:28.722Z,16.70
2018-06-15T04:50:28.684Z,16.73
2018-06-15T04:51:28.674Z,16.79
2018-06-15T04:52:28.658Z,16.78
2018-06-15T04:53:28.649Z,16.73
2018-06-15T04:54:28.639Z,16.81
2018-06-15T04:55:28.633Z,16.91
2018-06-15T04:56:28.607Z,16.91
2018-06-15T04:57:28.597Z,16.86
2018-06-15T04:58:28.582Z,16.94
2018-06-15T04:59:28.560Z,16.98
2018-06-15T05:00:28.566Z,16.98
2018-06-15T05:01:28.551Z,16.96
2018-06-15T05:02:28.524Z,16.88
2018-06-15T05:03:28.505Z,16.96
2018-06-15T05:04:28.494Z,16.97
2018-06-15T05:05:28.485Z,17.01
2018-06-15T05:06:28.486Z,16.97
2018-06-15T05:07:28.457Z,17.04
2018-06-15T05:08:28.461Z,17.00
2018-06-15T05:09:28.428Z,17.03
2018-06-15T05:10:28.412Z,17.07
2018-06-15T05:11:28.403Z,17.04
2018-06-15T05:12:28.385Z,17.07
2018-06-15T05:13:28.397Z,17.12
2018-06-15T05:14:28.384Z,17.11
2018-06-15T05:15:28.355Z,17.12
2018-06-15T05:16:28.337Z,17.08
2018-06-15T05:17:28.325Z,17.15
2018-06-15T05:18:28.373Z,17.14
2018-06-15T05:19:28.304Z,17.19
2018-06-15T05:20:28.288Z,17.26
2018-06-15T05:21:28.275Z,17.22
2018-06-15T05:22:28.286Z,17.31
2018-06-15T05:23:28.263Z,17.28
2018-06-15T05:24:28.251Z,17.28
2018-06-15T05:25:28.222Z,17.28
2018-06-15T05:26:28.215Z,17.43
2018-06-15T05:27:28.196Z,17.48
2018-06-15T05:28:28.187Z,17.41
2018-06-15T05:29:28.189Z,17.51
2018-06-15T05:30:28.158Z,17.52
2018-06-15T05:31:36.575Z,17.48
2018-06-15T05:32:28.131Z,17.51
2018-06-15T05:33:28.119Z,17.51
2018-06-15T05:34:28.107Z,17.52
2018-06-15T05:35:28.106Z,17.66
2018-06-15T05:36:28.092Z,17.63
2018-06-15T05:37:28.069Z,17.64
2018-06-15T05:38:28.052Z,17.66
2018-06-15T05:39:28.052Z,17.84
2018-06-15T05:40:28.036Z,17.74
2018-06-15T05:41:28.024Z,17.82
2018-06-15T05:42:28.012Z,17.82
2018-06-15T05:43:27.985Z,17.87
2018-06-15T05:44:27.978Z,17.82
2018-06-15T05:45:27.979Z,17.78
2018-06-15T05:46:27.950Z,17.78
2018-06-15T05:47:27.937Z,17.86
2018-06-15T05:48:27.921Z,17.84
2018-06-15T05:49:27.909Z,17.87
2018-06-15T05:50:27.912Z,17.92
2018-06-15T05:51:27.895Z,17.95
2018-06-15T05:52:27.876Z,17.93
2018-06-15T05:53:27.869Z,17.93
2018-06-15T05:54:27.848Z,17.92
2018-06-15T05:55:27.853Z,17.99
2018-06-15T05:56:27.841Z,18.08
2018-06-15T05:57:27.823Z,18.14
2018-06-15T05:58:27.796Z,18.05
2018-06-15T05:59:27.780Z,18.03
2018-06-15T06:00:27.773Z,18.08
2018-06-15T06:01:27.762Z,18.02
2018-06-15T06:02:27.757Z,18.17
2018-06-15T06:03:27.751Z,18.11
2018-06-15T06:04:27.721Z,18.15
2018-06-15T06:05:27.713Z,18.27
2018-06-15T06:06:27.696Z,18.30
2018-06-15T06:07:27.682Z,18.50
2018-06-15T06:08:27.686Z,18.54
2018-06-15T06:09:27.653Z,18.55
2018-06-15T06:10:27.645Z,18.52
2018-06-15T06:11:27.631Z,18.67
2018-06-15T06:12:27.615Z,18.66
2018-06-15T06:13:27.623Z,18.72
2018-06-15T06:14:27.597Z,18.76
2018-06-15T06:15:27.577Z,18.66
2018-06-15T06:16:27.574Z,18.63
2018-06-15T06:17:27.562Z,18.70
2018-06-15T06:18:27.553Z,18.72
2018-06-15T06:19:27.530Z,18.57
2018-06-15T06:20:27.515Z,18.67
2018-06-15T06:21:27.511Z,18.72
2018-06-15T06:22:27.490Z,18.72
2018-06-15T06:23:27.496Z,18.73
2018-06-15T06:24:27.486Z,18.84
2018-06-15T06:25:27.455Z,18.87
2018-06-15T06:26:27.445Z,18.94
2018-06-15T06:27:27.430Z,18.98
2018-06-15T06:28:27.423Z,18.99
2018-06-15T06:29:27.406Z,19.10
2018-06-15T06:30:27.407Z,19.14
2018-06-15T06:31:27.382Z,19.10
2018-06-15T06:32:27.386Z,19.08
2018-06-15T06:33:27.354Z,19.13
2018-06-15T06:34:27.360Z,19.10
2018-06-15T06:35:27.334Z,19.18
2018-06-15T06:36:27.325Z,19.13
2018-06-15T06:37:27.331Z,19.22
2018-06-15T06:38:27.297Z,19.28
2018-06-15T06:39:27.286Z,19.28
2018-06-15T06:40:27.291Z,19.25
2018-06-15T06:41:27.277Z,19.25
2018-06-15T06:42:27.250Z,19.29
2018-06-15T06:43:27.235Z,19.22
2018-06-15T06:44:27.227Z,19.29
2018-06-15T06:45:27.213Z,19.40
2018-06-15T06:46:27.231Z,19.37
2018-06-15T06:47:27.198Z,19.40
2018-06-15T06:48:27.180Z,19.51
2018-06-15T06:49:27.162Z,19.44
2018-06-15T06:50:27.210Z,19.65
2018-06-15T06:51:27.142Z,19.59
2018-06-15T06:52:27.146Z,19.74
2018-06-15T06:53:27.120Z,19.76
2018-06-15T06:54:27.109Z,19.81
2018-06-15T06:55:27.096Z,19.91
2018-06-15T06:56:27.085Z,19.91
2018-06-15T06:57:27.104Z,19.96
2018-06-15T06:58:27.070Z,19.99
2018-06-15T06:59:27.054Z,20.08
2018-06-15T07:00:27.042Z,20.01
2018-06-15T07:01:27.034Z,20.16
2018-06-15T07:02:27.020Z,20.14
2018-06-15T07:03:27.024Z,20.28
2018-06-15T07:04:27.009Z,20.50
2018-06-15T07:05:26.997Z,20.50
2018-06-15T07:06:26.981Z,20.54
2018-06-15T07:07:26.965Z,20.69
2018-06-15T07:08:26.967Z,20.67
2018-06-15T07:09:26.942Z,20.77
2018-06-15T07:10:26.928Z,20.80
2018-06-15T07:11:26.920Z,20.70
2018-06-15T07:12:26.908Z,20.69
2018-06-15T07:13:26.901Z,20.70
2018-06-15T07:14:26.900Z,20.77
2018-06-15T07:15:26.874Z,20.64
2018-06-15T07:16:26.867Z,20.69
2018-06-15T07:17:26.852Z,20.80
2018-06-15T07:18:26.845Z,20.94
2018-06-15T07:19:26.848Z,20.99
2018-06-15T07:20:26.821Z,21.12
2018-06-15T07:21:26.815Z,21.24
2018-06-15T07:22:26.810Z,21.12
2018-06-15T07:23:26.791Z,21.27
2018-06-15T07:24:26.777Z,21.25
2018-06-15T07:25:26.782Z,21.28
2018-06-15T07:26:26.757Z,21.14
2018-06-15T07:27:26.769Z,21.12
2018-06-15T07:28:26.739Z,21.06
2018-06-15T07:29:26.743Z,21.13
2018-06-15T07:30:26.737Z,21.14
2018-06-15T07:31:26.711Z,21.04
2018-06-15T07:32:26.693Z,21.03
2018-06-15T07:33:26.699Z,20.92
2018-06-15T07:34:26.678Z,20.87
2018-06-15T07:35:26.670Z,20.62
2018-06-15T07:36:26.679Z,20.66
2018-06-15T07:37:26.653Z,19.99
2018-06-15T07:38:26.638Z,19.87
2018-06-15T07:39:26.628Z,19.76
2018-06-15T07:40:26.610Z,19.76
2018-06-15T07:41:26.622Z,19.81
2018-06-15T07:42:26.597Z,19.88
2018-06-15T07:43:26.584Z,19.87
2018-06-15T07:44:26.573Z,19.98
2018-06-15T07:45:26.562Z,19.84
2018-06-15T07:46:26.569Z,20.05
2018-06-15T07:47:26.540Z,20.14
2018-06-15T07:48:26.534Z,20.21
2018-06-15T07:49:26.524Z,20.33
2018-06-15T07:50:26.507Z,20.52
2018-06-15T07:51:26.520Z,20.66
2018-06-15T07:52:26.515Z,20.66
2018-06-15T07:53:26.478Z,20.61
2018-06-15T07:54:26.465Z,20.51
2018-06-15T07:55:26.462Z,20.51
2018-06-15T07:56:26.445Z,20.64
2018-06-15T07:57:26.451Z,20.66
2018-06-15T07:58:26.421Z,20.95
2018-06-15T07:59:26.430Z,21.09
2018-06-15T08:00:26.403Z,21.22
2018-06-15T08:01:26.412Z,21.47
2018-06-15T08:02:26.380Z,21.68
2018-06-15T08:03:26.391Z,21.75
2018-06-15T08:04:26.359Z,21.84
2018-06-15T08:05:26.357Z,21.80
2018-06-15T08:06:26.342Z,21.64
2018-06-15T08:07:26.331Z,21.37
2018-06-15T08:08:26.323Z,21.17
2018-06-15T08:09:26.329Z,21.22
2018-06-15T08:10:26.295Z,21.13
2018-06-15T08:11:26.291Z,21.06
2018-06-15T08:12:47.297Z,21.03
2018-06-15T08:13:26.273Z,21.03
2018-06-15T08:14:26.275Z,20.97
2018-06-15T08:15:26.265Z,20.82
2018-06-15T08:16:26.243Z,20.97
2018-06-15T08:17:26.229Z,20.92
2018-06-15T08:18:26.237Z,20.95
2018-06-15T08:19:26.207Z,20.85
2018-06-15T08:20:26.197Z,20.89
2018-06-15T08:21:26.196Z,20.97
2018-06-15T08:22:26.179Z,20.89
2018-06-15T08:23:26.189Z,21.07
2018-06-15T08:24:26.156Z,21.01
2018-06-15T08:25:26.150Z,20.82
2018-06-15T08:26:26.138Z,20.84
2018-06-15T08:27:26.125Z,21.12
2018-06-15T08:28:26.114Z,21.27
2018-06-15T08:29:26.128Z,21.38
2018-06-15T08:30:26.097Z,21.44
2018-06-15T08:31:26.086Z,21.50
2018-06-15T08:32:26.074Z,21.40
2018-06-15T08:33:26.063Z,21.56
2018-06-15T08:34:26.071Z,21.67
2018-06-15T08:35:26.045Z,21.59
2018-06-15T08:36:26.037Z,21.49
2018-06-15T08:37:26.032Z,21.65
2018-06-15T08:38:26.013Z,21.88
2018-06-15T08:39:26.007Z,21.91
2018-06-15T08:40:26.013Z,22.05
2018-06-15T08:41:25.988Z,22.09
2018-06-15T08:42:26.016Z,22.17
2018-06-15T08:43:25.961Z,22.31
2018-06-15T08:44:25.957Z,22.07
2018-06-15T08:45:25.966Z,21.80
2018-06-15T08:46:25.935Z,21.75
2018-06-15T08:47:25.933Z,22.05
2018-06-15T08:48:25.916Z,22.28
2018-06-15T08:49:25.921Z,22.65
2018-06-15T08:50:25.894Z,22.90
2018-06-15T08:51:25.910Z,23.17
2018-06-15T08:52:25.876Z,23.40
2018-06-15T08:53:25.863Z,23.23
2018-06-15T08:54:25.855Z,23.31
2018-06-15T08:55:25.850Z,23.04
2018-06-15T08:56:25.853Z,22.94
2018-06-15T08:57:25.832Z,23.42
2018-06-15T08:58:25.822Z,23.47
2018-06-15T08:59:25.806Z,23.33
2018-06-15T09:00:25.804Z,23.10
2018-06-15T09:01:25.819Z,23.02
2018-06-15T09:02:25.787Z,23.22
2018-06-15T09:03:25.777Z,23.00
2018-06-15T09:04:25.767Z,22.02
2018-06-15T09:05:25.757Z,21.43
2018-06-15T09:06:25.748Z,21.32
2018-06-15T09:07:25.753Z,21.14
2018-06-15T09:08:25.725Z,21.06
2018-06-15T09:09:25.722Z,21.04
2018-06-15T09:10:25.711Z,21.09
2018-06-15T09:11:25.718Z,20.98
2018-06-15T09:12:25.690Z,21.07
2018-06-15T09:13:25.681Z,21.19
2018-06-15T09:14:25.668Z,21.25
2018-06-15T09:15:25.659Z,21.37
2018-06-15T09:16:25.656Z,21.19
2018-06-15T09:17:46.674Z,21.19
2018-06-15T09:18:25.633Z,21.25
2018-06-15T09:19:25.620Z,21.35
2018-06-15T09:20:25.615Z,21.50
2018-06-15T09:21:25.601Z,21.46
2018-06-15T09:22:25.593Z,21.40
2018-06-15T09:23:25.592Z,21.28
2018-06-15T09:24:25.570Z,21.32
2018-06-15T09:25:25.559Z,21.21
2018-06-15T09:26:25.563Z,21.32
2018-06-15T09:27:25.569Z,22.22
2018-06-15T09:28:25.528Z,22.60
2018-06-15T09:29:25.520Z,22.58
2018-06-15T09:30:25.512Z,22.14
2018-06-15T09:31:25.494Z,22.03
2018-06-15T09:32:25.487Z,22.37
2018-06-15T09:33:25.500Z,23.17
2018-06-15T09:34:25.470Z,24.32
2018-06-15T09:35:25.463Z,24.99
2018-06-15T09:36:25.453Z,25.85
2018-06-15T09:37:25.440Z,25.88
2018-06-15T09:38:25.429Z,25.58
2018-06-15T09:39:25.441Z,26.09
2018-06-15T09:40:25.419Z,26.02
2018-06-15T09:41:25.430Z,26.87
2018-06-15T09:42:25.405Z,27.85
2018-06-15T09:43:25.394Z,28.17
2018-06-15T09:44:25.413Z,27.84
2018-06-15T09:45:25.383Z,28.25
2018-06-15T09:46:25.395Z,27.39
2018-06-15T09:47:25.370Z,27.39
2018-06-15T09:48:25.364Z,27.79
2018-06-15T09:49:25.364Z,27.97
2018-06-15T09:50:25.682Z,28.22
2018-06-15T09:51:25.357Z,27.81
2018-06-15T09:52:25.347Z,27.12
2018-06-15T09:53:25.344Z,27.32
2018-06-15T09:55:57.575Z,26.06
2018-06-15T09:56:57.357Z,25.90
2018-06-15T09:57:57.360Z,25.21
2018-06-15T09:58:57.355Z,24.91
2018-06-15T09:59:57.368Z,24.96
2018-06-15T10:00:57.349Z,25.05
2018-06-15T10:01:57.363Z,25.82
2018-06-15T10:02:57.340Z,25.97
2018-06-15T10:03:57.336Z,24.77
2018-06-15T10:04:57.335Z,24.43
2018-06-15T10:05:57.350Z,24.46
2018-06-15T10:06:57.330Z,24.08
2018-06-15T10:07:57.322Z,24.18
2018-06-15T10:08:57.312Z,24.78
2018-06-15T10:09:57.312Z,25.00
2018-06-15T10:10:57.308Z,25.13
2018-06-15T10:11:57.320Z,24.47
2018-06-15T10:12:57.298Z,24.13
2018-06-15T10:13:57.297Z,25.24
2018-06-15T10:14:57.286Z,25.69
2018-06-15T10:15:57.285Z,26.54
2018-06-15T10:16:57.297Z,26.37
2018-06-15T10:17:57.292Z,25.54
2018-06-15T10:18:57.272Z,25.67
2018-06-15T10:19:57.268Z,24.52
2018-06-15T10:20:57.263Z,23.48
2018-06-15T10:21:57.277Z,23.73
2018-06-15T10:22:57.258Z,23.57
2018-06-15T10:23:57.250Z,23.55
2018-06-15T10:24:57.244Z,23.51
2018-06-15T10:25:57.238Z,23.91
2018-06-15T10:26:57.228Z,23.98
2018-06-15T10:27:57.256Z,25.06
2018-06-15T10:28:57.219Z,25.76
2018-06-15T10:29:57.222Z,26.54
2018-06-15T10:30:57.214Z,26.89
2018-06-15T10:31:57.210Z,27.66
2018-06-15T10:32:57.221Z,26.77
2018-06-15T10:33:57.218Z,26.72
2018-06-15T10:34:57.203Z,26.92
2018-06-15T10:35:57.191Z,26.09
2018-06-15T10:36:57.190Z,25.75
2018-06-15T10:37:57.183Z,25.99
2018-06-15T10:38:57.180Z,26.80
2018-06-15T10:39:57.193Z,27.65
2018-06-15T10:40:57.169Z,27.55
2018-06-15T10:41:57.167Z,27.57
2018-06-15T10:42:57.161Z,27.17
2018-06-15T10:43:57.177Z,26.69
2018-06-15T10:44:57.173Z,26.92
2018-06-15T10:45:57.174Z,26.35
2018-06-15T10:46:57.154Z,26.62
2018-06-15T10:47:57.156Z,27.13
2018-06-15T10:48:57.148Z,27.63
2018-06-15T10:49:57.161Z,27.72
2018-06-15T10:50:57.139Z,27.60
2018-06-15T10:51:57.137Z,26.23
2018-06-15T10:52:57.136Z,25.32
2018-06-15T10:53:57.136Z,24.87
2018-06-15T10:54:57.132Z,25.65
2018-06-15T10:55:57.159Z,26.45
2018-06-15T10:56:57.137Z,27.10
2018-06-15T10:57:57.123Z,27.85
2018-06-15T10:58:57.123Z,28.25
2018-06-15T10:59:57.114Z,28.19
2018-06-15T11:00:57.133Z,27.90
2018-06-15T11:01:57.115Z,26.87
2018-06-15T11:02:57.114Z,26.37
2018-06-15T11:03:57.112Z,26.07
2018-06-15T11:04:57.125Z,26.65
2018-06-15T11:05:57.125Z,27.40
2018-06-15T11:06:57.103Z,26.97
2018-06-15T11:07:57.100Z,27.34
2018-06-15T11:08:57.152Z,28.25
2018-06-15T11:09:57.111Z,28.66
2018-06-15T11:10:57.097Z,29.37
2018-06-15T11:11:57.114Z,29.06
2018-06-15T11:12:57.097Z,28.18
2018-06-15T11:13:57.098Z,27.60
2018-06-15T11:14:57.092Z,28.03
2018-06-15T11:15:57.112Z,28.27
2018-06-15T11:16:57.105Z,27.78
2018-06-15T11:17:57.089Z,28.19
2018-06-15T11:18:57.085Z,28.29
2018-06-15T11:19:57.117Z,27.93
2018-06-15T11:20:57.089Z,27.14
2018-06-15T11:21:57.086Z,26.44
2018-06-15T11:22:57.097Z,25.83
2018-06-15T11:23:57.081Z,25.85
2018-06-15T11:24:57.077Z,25.30
2018-06-15T11:25:57.079Z,25.36
2018-06-15T11:26:57.078Z,25.32
2018-06-15T11:27:57.089Z,25.52
2018-06-15T11:28:57.073Z,26.43
2018-06-15T11:29:57.072Z,27.00
2018-06-15T11:30:57.116Z,27.65
2018-06-15T11:31:57.070Z,27.85
2018-06-15T11:32:57.082Z,28.22
2018-06-15T11:33:57.058Z,28.46
2018-06-15T11:34:57.061Z,28.77
2018-06-15T11:35:57.060Z,29.41
2018-06-15T11:36:57.057Z,29.23
2018-06-15T11:37:57.073Z,29.37
2018-06-15T11:38:57.057Z,29.23
2018-06-15T11:39:57.053Z,29.43
2018-06-15T11:40:57.104Z,28.14
2018-06-15T11:41:57.052Z,28.00
2018-06-15T11:42:57.051Z,28.21
2018-06-15T11:43:57.070Z,28.58
2018-06-15T11:44:57.049Z,29.08
2018-06-15T11:45:57.051Z,28.56
2018-06-15T11:46:57.047Z,28.83
2018-06-15T11:47:57.042Z,29.18
2018-06-15T11:48:57.066Z,29.53
2018-06-15T11:49:57.064Z,29.57
2018-06-15T11:50:57.054Z,29.41
2018-06-15T11:51:57.044Z,29.64
2018-06-15T11:52:57.058Z,29.16
2018-06-15T11:53:57.042Z,28.51
2018-06-15T11:54:57.088Z,28.52
2018-06-15T11:55:57.041Z,27.82
2018-06-15T11:56:57.047Z,27.25
2018-06-15T11:57:57.048Z,27.70
2018-06-15T11:58:57.038Z,27.97
2018-06-15T11:59:57.061Z,27.97
2018-06-15T12:00:57.039Z,27.36
2018-06-15T12:01:57.036Z,26.87
2018-06-15T12:02:57.051Z,26.28
2018-06-15T12:03:57.039Z,26.21
2018-06-15T12:04:57.052Z,26.87
2018-06-15T12:05:57.051Z,27.51
2018-06-15T12:06:57.035Z,27.87
2018-06-15T12:07:57.090Z,28.22
2018-06-15T12:08:57.035Z,28.09
2018-06-15T12:09:57.031Z,27.96
2018-06-15T12:10:57.051Z,28.39
2018-06-15T12:11:57.025Z,28.74
2018-06-15T12:12:57.028Z,28.58
2018-06-15T12:13:57.025Z,28.46
2018-06-15T12:14:57.026Z,27.96
2018-06-15T12:15:57.030Z,27.85
2018-06-15T12:16:57.058Z,28.43
2018-06-15T12:17:57.020Z,28.27
2018-06-15T12:18:57.026Z,28.15
2018-06-15T12:19:57.025Z,28.18
2018-06-15T12:20:57.026Z,28.14
2018-06-15T12:21:57.039Z,28.36
2018-06-15T12:22:57.017Z,27.69
2018-06-15T12:23:57.022Z,27.14
2018-06-15T12:24:57.014Z,26.47
2018-06-15T12:25:57.019Z,25.95
2018-06-15T12:26:57.035Z,25.72
2018-06-15T12:27:57.014Z,24.96
2018-06-15T12:28:57.014Z,24.67
2018-06-15T12:29:57.013Z,24.42
2018-06-15T12:30:57.010Z,24.30
2018-06-15T12:31:57.010Z,24.71
2018-06-15T12:32:57.022Z,24.61
2018-06-15T12:33:57.002Z,24.96
2018-06-15T12:34:57.000Z,25.54
2018-06-15T12:35:56.992Z,25.98
2018-06-15T12:36:56.991Z,26.63
2018-06-15T12:37:56.982Z,27.14
2018-06-15T12:38:57.001Z,27.34
2018-06-15T12:39:56.983Z,27.63
2018-06-15T12:40:56.976Z,27.34
2018-06-15T12:41:56.973Z,26.75
2018-06-15T12:42:56.981Z,26.92
2018-06-15T12:43:56.968Z,27.19
2018-06-15T12:44:56.962Z,27.66
2018-06-15T12:45:56.982Z,28.17
2018-06-15T12:46:56.956Z,28.43
2018-06-15T12:47:56.970Z,28.71
2018-06-15T12:48:56.953Z,28.92
2018-06-15T12:49:56.951Z,28.25
2018-06-15T12:50:56.941Z,27.65
2018-06-15T12:51:56.943Z,27.47
2018-06-15T12:52:56.954Z,27.47
2018-06-15T12:53:56.957Z,27.55